createdAt,value
2023-01-28T00:01:52.885Z,101004.90
2023-01-28T00:04:19.675Z,101003.81
2023-01-28T00:06:46.991Z,101001.30
2023-01-28T00:09:14.102Z,101002.52
2023-01-28T00:11:41.763Z,101001.10
2023-01-28T00:14:12.951Z,100996.50
2023-01-28T00:16:43.281Z,101000.50
2023-01-28T00:19:10.321Z,100999.52
2023-01-28T00:21:38.435Z,100997.99
2023-01-28T00:24:06.635Z,100997.81
2023-01-28T00:26:33.587Z,100995.80
2023-01-28T00:29:01.020Z,100995.88
2023-01-28T00:31:28.494Z,100994.79
2023-01-28T00:33:56.160Z,100997.52
2023-01-28T00:36:24.804Z,101000.48
2023-01-28T00:38:53.134Z,100998.36
2023-01-28T00:41:21.858Z,100997.80
2023-01-28T00:43:51.256Z,100995.18
2023-01-28T00:46:18.400Z,100997.90
2023-01-28T00:48:45.506Z,100994.48
2023-01-28T00:51:14.482Z,100998.61
2023-01-28T00:53:41.551Z,101002.73
2023-01-28T00:56:08.961Z,101000.50
2023-01-28T00:58:35.861Z,100998.05
2023-01-28T01:01:08.292Z,100996.92
2023-01-28T01:03:36.210Z,100999.72
2023-01-28T01:06:04.171Z,100999.45
2023-01-28T01:08:39.509Z,101001.42
2023-01-28T01:11:07.092Z,101000.02
2023-01-28T01:13:36.884Z,100997.42
2023-01-28T01:16:16.935Z,100997.16
2023-01-28T01:18:43.883Z,100997.17
2023-01-28T01:21:14.219Z,100995.69
2023-01-28T01:23:41.465Z,100992.48
2023-01-28T01:26:08.523Z,100990.02
2023-01-28T01:28:35.753Z,100989.37
2023-01-28T01:31:07.738Z,100994.64
2023-01-28T01:33:35.087Z,100991.07
2023-01-28T01:36:01.935Z,100992.66
2023-01-28T01:38:29.708Z,100992.06
2023-01-28T01:41:00.196Z,100991.31
2023-01-28T01:44:00.763Z,100993.01
2023-01-28T01:46:36.925Z,100992.41
2023-01-28T01:53:11.246Z,100985.91
2023-01-28T01:55:40.699Z,100976.80
2023-01-28T01:58:09.642Z,100978.40
2023-01-28T02:00:40.475Z,100973.27
2023-01-28T02:03:10.145Z,100971.28
2023-01-28T02:05:37.949Z,100970.59
2023-01-28T02:08:22.625Z,100967.35
2023-01-28T02:10:53.810Z,100963.48
2023-01-28T02:13:23.007Z,100963.54
2023-01-28T02:15:50.662Z,100960.44
2023-01-28T02:18:17.518Z,100966.89
2023-01-28T02:20:56.845Z,100967.67
2023-01-28T02:24:01.914Z,100969.95
2023-01-28T02:27:00.273Z,100967.77
2023-01-28T02:29:30.289Z,100969.19
2023-01-28T02:32:15.289Z,100970.63
2023-01-28T02:34:48.079Z,100969.40
2023-01-28T02:37:39.149Z,100972.46
2023-01-28T02:40:11.470Z,100969.98
2023-01-28T02:42:39.845Z,100964.73
2023-01-28T02:45:20.776Z,100963.44
2023-01-28T02:47:59.169Z,100961.73
2023-01-28T02:50:39.605Z,100962.44
2023-01-28T02:53:28.665Z,100953.64
2023-01-28T02:56:07.717Z,100956.08
2023-01-28T02:58:46.989Z,100957.39
2023-01-28T03:01:28.137Z,100960.59
2023-01-28T03:04:09.725Z,100960.55
2023-01-28T03:06:44.233Z,100955.52
2023-01-28T03:09:26.569Z,100953.88
2023-01-28T03:12:18.910Z,100955.87
2023-01-28T03:15:07.346Z,100956.98
2023-01-28T03:18:01.168Z,100958.68
2023-01-28T03:20:53.641Z,100955.52
2023-01-28T03:23:41.668Z,100952.50
2023-01-28T03:26:30.966Z,100955.09
2023-01-28T03:29:20.039Z,100961.96
2023-01-28T03:32:05.637Z,100962.23
2023-01-28T03:34:51.772Z,100962.51
2023-01-28T03:37:19.011Z,100969.27
2023-01-28T03:40:06.758Z,100963.73
2023-01-28T03:42:36.174Z,100961.69
2023-01-28T03:45:09.739Z,100960.71
2023-01-28T03:47:40.166Z,100957.40
2023-01-28T03:50:08.791Z,100955.39
2023-01-28T03:52:43.995Z,100954.34
2023-01-28T03:55:30.032Z,100955.50
2023-01-28T04:10:43.655Z,100969.56
2023-01-28T04:13:19.274Z,100966.82
2023-01-28T04:15:46.636Z,100968.20
2023-01-28T04:18:15.347Z,100973.52
2023-01-28T04:20:42.648Z,100974.77
2023-01-28T04:23:09.783Z,100976.38
2023-01-28T04:25:39.145Z,100975.60
2023-01-28T04:28:09.265Z,100976.56
2023-01-28T04:30:36.704Z,100977.40
2023-01-28T04:33:30.398Z,100982.33
2023-01-28T04:36:16.288Z,100984.41
2023-01-28T04:39:02.269Z,100988.84
2023-01-28T04:41:39.233Z,100990.43
2023-01-28T04:44:16.906Z,100988.42
2023-01-28T04:47:03.922Z,100989.64
2023-01-28T04:49:41.831Z,100993.07
2023-01-28T04:52:36.715Z,100999.55
2023-01-28T04:55:33.706Z,100998.54
2023-01-28T04:58:02.154Z,100998.30
2023-01-28T05:00:30.507Z,100997.61
2023-01-28T05:02:57.593Z,100994.25
2023-01-28T05:05:27.078Z,100996.79
2023-01-28T05:08:03.338Z,100992.22
2023-01-28T05:10:31.114Z,100987.39
2023-01-28T05:12:58.169Z,100983.65
2023-01-28T05:15:25.235Z,100980.88
2023-01-28T05:17:55.696Z,100983.36
2023-01-28T05:20:23.201Z,100983.19
2023-01-28T05:22:53.857Z,100984.77
2023-01-28T05:25:23.906Z,100987.39
2023-01-28T05:27:51.428Z,100990.80
2023-01-28T05:30:19.797Z,100990.84
2023-01-28T05:32:47.323Z,100987.73
2023-01-28T05:35:21.292Z,100989.39
2023-01-28T05:37:48.204Z,100993.77
2023-01-28T05:40:17.663Z,100994.02
2023-01-28T05:42:44.956Z,100990.42
2023-01-28T05:45:49.267Z,100992.19
2023-01-28T05:48:39.490Z,100994.77
2023-01-28T05:51:18.388Z,100999.37
2023-01-28T05:53:54.266Z,100999.40
2023-01-28T05:56:23.090Z,100995.29
2023-01-28T05:58:50.047Z,100997.67
2023-01-28T06:01:21.319Z,100995.09
2023-01-28T06:03:51.971Z,100993.06
2023-01-28T06:06:19.061Z,100991.42
2023-01-28T06:08:46.919Z,100992.19
2023-01-28T06:11:20.139Z,100988.65
2023-01-28T06:13:47.917Z,100996.36
2023-01-28T06:16:48.017Z,101002.27
2023-01-28T06:19:35.425Z,100998.52
2023-01-28T06:22:05.452Z,100995.04
2023-01-28T06:24:32.902Z,100996.90
2023-01-28T06:26:59.868Z,101001.83
2023-01-28T06:29:27.203Z,101005.20
2023-01-28T06:31:54.306Z,101009.19
2023-01-28T06:34:21.330Z,101007.89
2023-01-28T06:36:48.230Z,101012.41
2023-01-28T06:39:15.133Z,101010.83
2023-01-28T06:41:42.031Z,101006.76
2023-01-28T06:44:11.938Z,100996.78
2023-01-28T06:46:38.944Z,101003.96
2023-01-28T06:49:05.856Z,101010.70
2023-01-28T06:51:33.000Z,101015.37
2023-01-28T06:54:00.663Z,101020.44
2023-01-28T06:56:27.631Z,101024.54
2023-01-28T06:58:54.661Z,101023.39
2023-01-28T07:01:21.710Z,101024.37
2023-01-28T07:03:48.801Z,101024.98
2023-01-28T07:06:19.803Z,101019.43
2023-01-28T07:08:47.201Z,101015.23
2023-01-28T07:11:14.790Z,101019.33
2023-01-28T07:13:43.054Z,101021.59
2023-01-28T07:16:10.155Z,101025.63
2023-01-28T07:18:37.212Z,101024.53
2023-01-28T07:21:04.948Z,101021.73
2023-01-28T07:23:32.045Z,101024.36
2023-01-28T07:26:03.068Z,101023.66
2023-01-28T07:28:32.158Z,101020.91
2023-01-28T07:30:59.450Z,101024.03
2023-01-28T07:33:26.864Z,101023.18
2023-01-28T07:35:53.855Z,101024.23
2023-01-28T07:38:21.060Z,101023.67
2023-01-28T07:40:48.150Z,101021.85
2023-01-28T07:43:15.506Z,101023.42
2023-01-28T07:45:42.747Z,101026.83
2023-01-28T07:48:11.415Z,101027.14
2023-01-28T07:50:39.702Z,101028.50
2023-01-28T07:53:09.306Z,101028.56
2023-01-28T07:55:36.820Z,101021.03
2023-01-28T07:58:05.611Z,101018.48
2023-01-28T08:00:33.936Z,101018.44
2023-01-28T08:03:03.340Z,101017.27
2023-01-28T08:05:38.919Z,101013.11
2023-01-28T08:08:07.603Z,101016.01
2023-01-28T08:10:34.490Z,101016.18
2023-01-28T08:13:01.893Z,101019.51
2023-01-28T08:15:29.000Z,101022.92
2023-01-28T08:17:58.170Z,101022.92
2023-01-28T08:20:26.293Z,101022.20
2023-01-28T08:22:53.246Z,101024.61
2023-01-28T08:25:20.382Z,101025.45
2023-01-28T08:27:47.894Z,101018.70
2023-01-28T08:30:15.266Z,101015.61
2023-01-28T08:32:42.579Z,101014.89
2023-01-28T08:35:11.942Z,101015.11
2023-01-28T08:37:38.757Z,101009.80
2023-01-28T08:40:06.807Z,101008.66
2023-01-28T08:42:35.821Z,101003.85
2023-01-28T08:45:03.422Z,101002.36
2023-01-28T08:47:30.545Z,101001.67
2023-01-28T08:50:00.988Z,100992.48
2023-01-28T08:52:27.839Z,100993.06
2023-01-28T08:54:55.440Z,100993.50
2023-01-28T08:57:22.684Z,100991.77
2023-01-28T08:59:49.582Z,100993.48
2023-01-28T09:02:30.843Z,100987.06
2023-01-28T09:04:58.785Z,100989.85
2023-01-28T09:07:25.727Z,100990.56
2023-01-28T09:09:52.556Z,100990.18
2023-01-28T09:12:20.456Z,100984.49
2023-01-28T09:14:47.493Z,100981.84
2023-01-28T09:17:14.685Z,100979.72
2023-01-28T09:19:41.834Z,100971.86
2023-01-28T09:22:09.102Z,100966.30
2023-01-28T09:24:38.647Z,100963.08
2023-01-28T09:27:06.324Z,100957.98
2023-01-28T09:29:34.228Z,100951.90
2023-01-28T09:32:01.164Z,100948.55
2023-01-28T09:34:28.279Z,100944.78
2023-01-28T09:36:55.554Z,100943.88
2023-01-28T09:39:24.723Z,100941.45
2023-01-28T09:42:33.569Z,100938.46
2023-01-28T09:45:15.780Z,100934.80
2023-01-28T09:47:50.552Z,100929.45
2023-01-28T09:50:34.724Z,100931.19
2023-01-28T09:53:24.858Z,100925.69
2023-01-28T09:55:56.619Z,100925.07
2023-01-28T09:58:23.731Z,100927.64
2023-01-28T10:01:00.770Z,100922.64
2023-01-28T10:03:28.945Z,100916.56
2023-01-28T10:06:17.444Z,100913.73
2023-01-28T10:08:52.092Z,100913.33
2023-01-28T10:11:47.392Z,100909.31
2023-01-28T10:14:29.667Z,100913.88
2023-01-28T10:17:03.215Z,100913.79
2023-01-28T10:19:35.844Z,100916.30
2023-01-28T10:22:08.653Z,100916.65
2023-01-28T10:24:45.893Z,100914.48
2023-01-28T10:27:16.335Z,100909.73
2023-01-28T10:29:46.079Z,100905.41
2023-01-28T10:32:18.838Z,100900.45
2023-01-28T10:34:45.981Z,100899.57
2023-01-28T10:37:13.307Z,100898.73
2023-01-28T10:39:42.108Z,100893.84
2023-01-28T10:42:23.692Z,100885.41
2023-01-28T10:44:53.203Z,100884.77
2023-01-28T10:47:30.856Z,100882.27
2023-01-28T10:49:59.385Z,100880.38
2023-01-28T10:52:26.709Z,100876.80
2023-01-28T10:55:02.135Z,100867.38
2023-01-28T10:57:29.634Z,100857.63
2023-01-28T10:59:56.525Z,100858.73
2023-01-28T11:02:31.731Z,100855.75
2023-01-28T11:05:18.204Z,100851.39
2023-01-28T11:07:45.411Z,100850.07
2023-01-28T11:10:27.164Z,100852.98
2023-01-28T11:12:58.713Z,100843.34
2023-01-28T11:15:26.036Z,100844.90
2023-01-28T11:18:06.037Z,100845.70
2023-01-28T11:20:41.226Z,100842.06
2023-01-28T11:23:18.958Z,100839.81
2023-01-28T11:25:46.967Z,100838.45
2023-01-28T11:28:17.290Z,100835.66
2023-01-28T11:30:44.543Z,100832.30
2023-01-28T11:33:19.582Z,100838.30
2023-01-28T11:36:05.736Z,100835.51
2023-01-28T11:38:34.055Z,100837.36
2023-01-28T11:41:01.198Z,100836.42
2023-01-28T11:43:30.013Z,100826.26
2023-01-28T11:46:06.793Z,100821.66
2023-01-28T11:48:37.239Z,100820.77
2023-01-28T11:51:08.016Z,100817.67
2023-01-28T11:53:42.279Z,100815.29
2023-01-28T11:56:15.080Z,100812.02
2023-01-28T11:59:19.491Z,100809.80
2023-01-28T12:02:02.355Z,100810.46
2023-01-28T12:04:46.231Z,100810.23
2023-01-28T12:07:32.469Z,100805.60
2023-01-28T12:10:21.998Z,100806.23
2023-01-28T15:56:13.475Z,100816.92
2023-01-28T15:58:42.634Z,100815.99
2023-01-28T16:01:15.987Z,100810.17
2023-01-28T16:03:45.447Z,100811.45
2023-01-28T16:06:19.089Z,100811.73
2023-01-28T16:08:59.208Z,100812.15
2023-01-28T16:11:28.947Z,100813.13
2023-01-28T16:13:58.262Z,100819.70
2023-01-28T16:16:37.749Z,100824.83
2023-01-28T16:19:07.211Z,100827.90
2023-01-28T16:21:44.211Z,100829.70
2023-01-28T16:24:43.891Z,100832.88
2023-01-28T16:27:23.643Z,100832.46
2023-01-28T16:29:52.049Z,100835.71
2023-01-28T16:32:30.849Z,100832.61
2023-01-28T16:34:59.561Z,100830.82
2023-01-28T16:37:27.984Z,100827.15
2023-01-28T16:39:58.104Z,100829.34
2023-01-28T16:42:29.186Z,100829.27
2023-01-28T16:44:57.472Z,100828.20
2023-01-28T16:47:25.856Z,100831.78
2023-01-28T16:49:54.340Z,100832.68
2023-01-28T16:52:22.707Z,100833.51
2023-01-28T16:54:50.997Z,100836.77
2023-01-28T16:57:20.591Z,100837.58
2023-01-28T16:59:49.557Z,100836.54
2023-01-28T17:02:18.279Z,100834.52
2023-01-28T17:04:47.074Z,100835.27
2023-01-28T17:07:15.467Z,100830.31
2023-01-28T17:09:45.683Z,100835.50
2023-01-28T17:12:14.260Z,100832.42
2023-01-28T17:14:44.074Z,100834.86
2023-01-28T17:17:13.274Z,100836.52
2023-01-28T17:19:44.222Z,100838.42
2023-01-28T17:22:12.534Z,100840.70
2023-01-28T17:24:41.595Z,100838.54
2023-01-28T17:27:10.408Z,100841.27
2023-01-28T17:29:38.766Z,100840.64
2023-01-28T17:32:07.239Z,100842.77
2023-01-28T17:34:36.142Z,100848.02
2023-01-28T17:37:06.059Z,100843.19
2023-01-28T17:39:34.436Z,100845.73
2023-01-28T17:42:02.820Z,100846.11
2023-01-28T17:44:32.132Z,100846.58
2023-01-28T17:47:01.437Z,100842.61
2023-01-28T17:49:30.316Z,100843.89
2023-01-28T17:51:58.709Z,100842.65
2023-01-28T17:54:27.115Z,100840.42
2023-01-28T17:56:56.072Z,100840.17
2023-01-28T17:59:25.871Z,100838.32
2023-01-28T18:01:55.106Z,100836.20
2023-01-28T18:04:23.468Z,100834.91
2023-01-28T18:06:52.261Z,100839.05
2023-01-28T18:09:20.843Z,100843.23
2023-01-28T18:11:51.976Z,100842.61
2023-01-28T18:14:20.575Z,100842.77
2023-01-28T18:16:48.855Z,100845.80
2023-01-28T18:19:17.340Z,100844.81
2023-01-28T18:21:53.680Z,100848.58
2023-01-28T18:24:27.395Z,100849.64
2023-01-28T18:26:58.970Z,100847.43
2023-01-28T18:29:28.031Z,100845.08
2023-01-28T18:31:56.646Z,100844.61
2023-01-28T18:34:26.129Z,100847.50
2023-01-28T18:36:55.182Z,100850.68
2023-01-28T18:39:23.741Z,100849.05
2023-01-28T18:41:57.758Z,100849.20
2023-01-28T18:44:30.176Z,100850.17
2023-01-28T18:46:58.624Z,100852.53
2023-01-28T18:49:26.900Z,100859.13
2023-01-28T18:51:55.086Z,100860.67
2023-01-28T18:54:24.237Z,100861.76
2023-01-28T18:56:52.848Z,100861.52
2023-01-28T18:59:21.537Z,100858.48
2023-01-28T19:01:50.307Z,100857.23
2023-01-28T19:04:19.429Z,100856.95
2023-01-28T19:06:47.704Z,100860.68
2023-01-28T19:09:16.265Z,100862.61
2023-01-28T19:11:45.156Z,100862.91
2023-01-28T19:14:14.702Z,100865.23
2023-01-28T19:16:44.555Z,100863.20
2023-01-28T19:19:12.993Z,100859.01
2023-01-28T19:21:42.908Z,100856.50
2023-01-28T19:24:14.146Z,100854.85
2023-01-28T19:26:44.203Z,100852.55
2023-01-28T19:29:15.519Z,100849.69
2023-01-28T19:31:49.244Z,100848.95
2023-01-28T19:34:17.818Z,100853.84
2023-01-28T19:36:46.949Z,100854.25
2023-01-28T19:39:15.304Z,100861.70
2023-01-28T19:41:44.796Z,100866.05
2023-01-28T19:44:13.653Z,100868.85
2023-01-28T19:46:42.210Z,100870.17
2023-01-28T19:49:12.515Z,100873.77
2023-01-28T19:51:42.390Z,100870.39
2023-01-28T19:54:10.911Z,100867.36
2023-01-28T20:08:18.466Z,100870.27
2023-01-28T20:10:47.815Z,100872.41
2023-01-28T20:13:14.829Z,100877.16
2023-01-28T20:15:41.859Z,100877.54
2023-01-28T20:18:09.289Z,100877.20
2023-01-28T20:20:36.582Z,100881.50
2023-01-28T20:23:05.154Z,100883.21
2023-01-28T20:25:32.553Z,100886.95
2023-01-28T20:27:59.780Z,100884.36
2023-01-28T20:30:26.525Z,100885.00
2023-01-28T20:32:59.933Z,100884.16
2023-01-28T20:35:27.073Z,100881.86
2023-01-28T20:37:55.763Z,100883.98
2023-01-28T20:40:23.770Z,100888.81
2023-01-28T20:42:50.534Z,100888.80
2023-01-28T20:45:19.235Z,100894.31
2023-01-28T20:47:47.821Z,100889.91
2023-01-28T20:50:15.375Z,100885.81
2023-01-28T20:52:42.636Z,100882.08
2023-01-28T20:55:10.271Z,100882.54
2023-01-28T20:57:37.820Z,100882.63
2023-01-28T21:00:06.102Z,100884.22
2023-01-28T21:02:37.076Z,100881.30
2023-01-28T21:05:04.701Z,100878.48
2023-01-28T21:07:31.651Z,100876.91
2023-01-28T21:10:02.086Z,100882.33
2023-01-28T21:12:29.888Z,100878.93
2023-01-28T21:14:57.210Z,100883.35
2023-01-28T21:17:25.835Z,100881.69
2023-01-28T21:19:54.076Z,100880.92
2023-01-28T21:22:21.052Z,100879.73
2023-01-28T21:24:50.764Z,100877.20
2023-01-28T21:27:18.110Z,100879.55
2023-01-28T21:29:44.960Z,100880.67
2023-01-28T21:32:15.401Z,100881.84
2023-01-28T21:34:42.452Z,100887.26
2023-01-28T21:37:09.709Z,100884.19
2023-01-28T21:39:36.526Z,100883.39
2023-01-28T21:42:03.632Z,100884.88
2023-01-28T21:44:30.562Z,100884.14
2023-01-28T21:46:57.496Z,100888.04
2023-01-28T21:49:24.316Z,100887.35
2023-01-28T21:51:52.322Z,100886.30
2023-01-28T21:54:19.247Z,100885.23
2023-01-28T21:56:48.625Z,100889.63
2023-01-28T21:59:28.167Z,100888.33
2023-01-28T22:02:00.757Z,100881.71
2023-01-28T22:04:36.045Z,100884.45
2023-01-28T22:07:04.259Z,100885.40
2023-01-28T22:09:33.265Z,100886.06
2023-01-28T22:12:04.657Z,100886.17
2023-01-28T22:14:32.569Z,100879.55
2023-01-28T22:16:59.417Z,100875.83
2023-01-28T22:19:26.368Z,100876.47
2023-01-28T22:21:53.207Z,100873.77
2023-01-28T22:24:24.633Z,100873.95
2023-01-28T22:26:52.545Z,100872.49
2023-01-28T22:29:20.168Z,100873.38
2023-01-28T22:31:48.360Z,100870.38
2023-01-28T22:34:16.126Z,100867.39
2023-01-28T22:36:43.437Z,100864.60
2023-01-28T22:39:14.679Z,100863.92
2023-01-28T22:41:41.743Z,100862.89
2023-01-28T22:44:08.906Z,100865.27
2023-01-28T22:46:35.781Z,100867.55
2023-01-28T22:49:02.825Z,100865.08
2023-01-28T22:51:32.673Z,100866.60
2023-01-28T22:53:59.645Z,100865.84
2023-01-28T22:56:27.240Z,100864.02
2023-01-28T22:58:56.588Z,100863.05
2023-01-28T23:01:25.211Z,100862.64
2023-01-28T23:03:52.431Z,100860.56
2023-01-28T23:06:21.974Z,100856.96
2023-01-28T23:08:50.208Z,100856.82
2023-01-28T23:11:28.902Z,100854.98
2023-01-28T23:14:16.580Z,100857.19
2023-01-28T23:17:02.744Z,100857.38
2023-01-28T23:19:50.051Z,100856.92
2023-01-28T23:22:43.056Z,100857.23
2023-01-28T23:25:10.438Z,100853.25
2023-01-28T23:27:37.345Z,100850.91
2023-01-28T23:30:09.472Z,100851.06
2023-01-28T23:32:39.452Z,100847.02
2023-01-28T23:35:10.520Z,100842.31
2023-01-28T23:37:41.151Z,100841.98
2023-01-28T23:40:10.808Z,100837.59
2023-01-28T23:42:37.663Z,100844.71
2023-01-28T23:45:08.711Z,100847.05
2023-01-28T23:47:36.516Z,100851.38
2023-01-28T23:50:03.760Z,100847.10
2023-01-28T23:52:34.017Z,100844.11
2023-01-28T23:55:00.832Z,100840.30
2023-01-28T23:57:28.156Z,100836.07
2023-01-28T23:59:54.921Z,100832.52
